sensor_id;sensor_type;location;lat;lon;timestamp;temperature;humidity
12434;DHT22;6281;49.038;8.372;2023-11-19T00:00:52;9.30;99.90
12434;DHT22;6281;49.038;8.372;2023-11-19T00:03:19;9.40;99.90
12434;DHT22;6281;49.038;8.372;2023-11-19T00:05:47;9.40;99.90
12434;DHT22;6281;49.038;8.372;2023-11-19T00:08:15;9.40;99.90
12434;DHT22;6281;49.038;8.372;2023-11-19T00:10:42;9.40;99.90
12434;DHT22;6281;49.038;8.372;2023-11-19T00:13:09;9.40;99.90
12434;DHT22;6281;49.038;8.372;2023-11-19T00:15:36;9.40;99.90
12434;DHT22;6281;49.038;8.372;2023-11-19T00:18:03;9.50;99.90
12434;DHT22;6281;49.038;8.372;2023-11-19T00:20:30;9.50;99.90
12434;DHT22;6281;49.038;8.372;2023-11-19T00:22:59;9.50;99.90
12434;DHT22;6281;49.038;8.372;2023-11-19T00:25:28;9.50;99.90
12434;DHT22;6281;49.038;8.372;2023-11-19T00:27:54;9.50;99.90
12434;DHT22;6281;49.038;8.372;2023-11-19T00:30:22;9.60;99.90
12434;DHT22;6281;49.038;8.372;2023-11-19T00:32:49;9.70;99.90
12434;DHT22;6281;49.038;8.372;2023-11-19T00:35:16;9.70;99.90
12434;DHT22;6281;49.038;8.372;2023-11-19T00:37:43;9.70;99.90
12434;DHT22;6281;49.038;8.372;2023-11-19T00:40:12;9.70;99.90
12434;DHT22;6281;49.038;8.372;2023-11-19T00:42:41;9.80;99.90
12434;DHT22;6281;49.038;8.372;2023-11-19T00:45:09;9.70;99.90
12434;DHT22;6281;49.038;8.372;2023-11-19T00:47:37;9.80;99.90
12434;DHT22;6281;49.038;8.372;2023-11-19T00:50:05;9.70;99.90
12434;DHT22;6281;49.038;8.372;2023-11-19T00:52:34;9.80;99.90
12434;DHT22;6281;49.038;8.372;2023-11-19T00:55:02;9.80;99.90
12434;DHT22;6281;49.038;8.372;2023-11-19T00:57:31;9.80;99.90
12434;DHT22;6281;49.038;8.372;2023-11-19T00:59:58;9.80;99.90
12434;DHT22;6281;49.038;8.372;2023-11-19T01:02:25;9.90;99.90
12434;DHT22;6281;49.038;8.372;2023-11-19T01:04:52;9.90;99.90
12434;DHT22;6281;49.038;8.372;2023-11-19T01:07:19;9.90;99.90
12434;DHT22;6281;49.038;8.372;2023-11-19T01:09:47;9.90;99.90
12434;DHT22;6281;49.038;8.372;2023-11-19T01:12:14;10.00;99.90
12434;DHT22;6281;49.038;8.372;2023-11-19T01:14:43;10.00;99.90
12434;DHT22;6281;49.038;8.372;2023-11-19T01:17:10;10.00;99.90
12434;DHT22;6281;49.038;8.372;2023-11-19T01:19:37;10.00;99.90
12434;DHT22;6281;49.038;8.372;2023-11-19T01:22:04;10.10;99.90
12434;DHT22;6281;49.038;8.372;2023-11-19T01:24:31;10.10;99.90
12434;DHT22;6281;49.038;8.372;2023-11-19T01:26:58;10.10;99.90
12434;DHT22;6281;49.038;8.372;2023-11-19T01:29:25;10.20;99.90
12434;DHT22;6281;49.038;8.372;2023-11-19T01:31:53;10.20;99.90
12434;DHT22;6281;49.038;8.372;2023-11-19T01:34:20;10.20;99.90
12434;DHT22;6281;49.038;8.372;2023-11-19T01:36:47;10.20;99.90
12434;DHT22;6281;49.038;8.372;2023-11-19T01:39:15;10.20;99.90
12434;DHT22;6281;49.038;8.372;2023-11-19T01:41:43;10.30;99.90
12434;DHT22;6281;49.038;8.372;2023-11-19T01:44:09;10.30;99.90
12434;DHT22;6281;49.038;8.372;2023-11-19T01:46:38;10.30;99.90
12434;DHT22;6281;49.038;8.372;2023-11-19T01:49:08;10.30;99.90
12434;DHT22;6281;49.038;8.372;2023-11-19T01:51:37;10.30;99.90
12434;DHT22;6281;49.038;8.372;2023-11-19T01:54:06;10.30;99.90
12434;DHT22;6281;49.038;8.372;2023-11-19T01:56:34;10.40;99.90
12434;DHT22;6281;49.038;8.372;2023-11-19T01:59:01;10.40;99.90
12434;DHT22;6281;49.038;8.372;2023-11-19T02:01:29;10.40;99.90
12434;DHT22;6281;49.038;8.372;2023-11-19T02:03:58;10.30;99.90
12434;DHT22;6281;49.038;8.372;2023-11-19T02:06:28;10.30;99.90
12434;DHT22;6281;49.038;8.372;2023-11-19T02:08:55;10.40;99.90
12434;DHT22;6281;49.038;8.372;2023-11-19T02:11:22;10.40;99.90
12434;DHT22;6281;49.038;8.372;2023-11-19T02:13:49;10.40;99.90
12434;DHT22;6281;49.038;8.372;2023-11-19T02:16:16;10.40;99.90
12434;DHT22;6281;49.038;8.372;2023-11-19T02:18:43;10.40;99.90
12434;DHT22;6281;49.038;8.372;2023-11-19T02:21:10;10.40;99.90
12434;DHT22;6281;49.038;8.372;2023-11-19T02:23:39;10.40;99.90
12434;DHT22;6281;49.038;8.372;2023-11-19T02:26:12;10.40;99.90
12434;DHT22;6281;49.038;8.372;2023-11-19T02:28:42;10.50;99.90
12434;DHT22;6281;49.038;8.372;2023-11-19T02:31:09;10.50;99.90
12434;DHT22;6281;49.038;8.372;2023-11-19T02:33:37;10.50;99.90
12434;DHT22;6281;49.038;8.372;2023-11-19T02:36:04;10.50;99.90
12434;DHT22;6281;49.038;8.372;2023-11-19T02:38:32;10.50;99.90
12434;DHT22;6281;49.038;8.372;2023-11-19T02:41:01;10.50;99.90
12434;DHT22;6281;49.038;8.372;2023-11-19T02:43:30;10.50;99.90
12434;DHT22;6281;49.038;8.372;2023-11-19T02:46:00;10.50;99.90
12434;DHT22;6281;49.038;8.372;2023-11-19T02:48:27;10.50;99.90
12434;DHT22;6281;49.038;8.372;2023-11-19T02:50:54;10.50;99.90
12434;DHT22;6281;49.038;8.372;2023-11-19T02:53:23;10.50;99.90
12434;DHT22;6281;49.038;8.372;2023-11-19T02:55:53;10.50;99.90
12434;DHT22;6281;49.038;8.372;2023-11-19T02:58:26;10.50;99.90
12434;DHT22;6281;49.038;8.372;2023-11-19T03:00:54;10.50;99.90
12434;DHT22;6281;49.038;8.372;2023-11-19T03:03:25;10.50;99.90
12434;DHT22;6281;49.038;8.372;2023-11-19T03:05:56;10.50;99.90
12434;DHT22;6281;49.038;8.372;2023-11-19T03:08:23;10.50;99.90
12434;DHT22;6281;49.038;8.372;2023-11-19T03:10:50;10.50;99.90
12434;DHT22;6281;49.038;8.372;2023-11-19T03:16:55;10.50;99.90
12434;DHT22;6281;49.038;8.372;2023-11-19T03:22:58;10.60;99.90
12434;DHT22;6281;49.038;8.372;2023-11-19T03:26:18;10.60;99.90
12434;DHT22;6281;49.038;8.372;2023-11-19T03:39:58;10.50;99.90
12434;DHT22;6281;49.038;8.372;2023-11-19T03:42:28;10.60;99.90
12434;DHT22;6281;49.038;8.372;2023-11-19T03:44:56;10.60;99.90
12434;DHT22;6281;49.038;8.372;2023-11-19T03:47:25;10.60;99.90
12434;DHT22;6281;49.038;8.372;2023-11-19T03:49:55;10.60;99.90
12434;DHT22;6281;49.038;8.372;2023-11-19T03:52:23;10.60;99.90
12434;DHT22;6281;49.038;8.372;2023-11-19T03:55:00;10.70;99.90
12434;DHT22;6281;49.038;8.372;2023-11-19T03:57:28;10.70;99.90
12434;DHT22;6281;49.038;8.372;2023-11-19T03:59:56;10.70;99.90
12434;DHT22;6281;49.038;8.372;2023-11-19T04:02:24;10.80;99.90
12434;DHT22;6281;49.038;8.372;2023-11-19T04:04:57;10.80;99.90
12434;DHT22;6281;49.038;8.372;2023-11-19T04:07:25;10.80;99.90
12434;DHT22;6281;49.038;8.372;2023-11-19T04:09:55;10.80;99.90
12434;DHT22;6281;49.038;8.372;2023-11-19T04:12:25;10.80;99.90
12434;DHT22;6281;49.038;8.372;2023-11-19T04:14:53;10.90;99.90
12434;DHT22;6281;49.038;8.372;2023-11-19T04:17:27;10.90;99.90
12434;DHT22;6281;49.038;8.372;2023-11-19T04:19:54;10.90;99.90
12434;DHT22;6281;49.038;8.372;2023-11-19T04:22:23;10.90;99.90
12434;DHT22;6281;49.038;8.372;2023-11-19T04:24:50;10.90;99.90
12434;DHT22;6281;49.038;8.372;2023-11-19T04:27:20;10.90;99.90
12434;DHT22;6281;49.038;8.372;2023-11-19T04:29:51;10.90;99.90
12434;DHT22;6281;49.038;8.372;2023-11-19T04:32:20;10.90;99.90
12434;DHT22;6281;49.038;8.372;2023-11-19T04:34:54;10.80;99.90
12434;DHT22;6281;49.038;8.372;2023-11-19T04:38:09;10.90;99.90
12434;DHT22;6281;49.038;8.372;2023-11-19T04:44:19;10.90;99.90
12434;DHT22;6281;49.038;8.372;2023-11-19T04:47:28;10.90;99.90
12434;DHT22;6281;49.038;8.372;2023-11-19T04:50:19;11.00;99.90
12434;DHT22;6281;49.038;8.372;2023-11-19T04:53:09;11.00;99.90
12434;DHT22;6281;49.038;8.372;2023-11-19T04:56:27;11.10;99.90
12434;DHT22;6281;49.038;8.372;2023-11-19T05:06:08;11.30;99.90
12434;DHT22;6281;49.038;8.372;2023-11-19T05:08:59;11.30;99.90
12434;DHT22;6281;49.038;8.372;2023-11-19T05:11:58;11.40;99.90
12434;DHT22;6281;49.038;8.372;2023-11-19T05:14:59;11.40;99.90
12434;DHT22;6281;49.038;8.372;2023-11-19T05:17:48;11.50;99.90
12434;DHT22;6281;49.038;8.372;2023-11-19T05:27:28;11.70;99.90
12434;DHT22;6281;49.038;8.372;2023-11-19T05:30:09;11.70;99.90
12434;DHT22;6281;49.038;8.372;2023-11-19T05:34:57;11.70;99.90
12434;DHT22;6281;49.038;8.372;2023-11-19T05:36:08;11.80;99.90
12434;DHT22;6281;49.038;8.372;2023-11-19T05:39:27;11.80;99.90
12434;DHT22;6281;49.038;8.372;2023-11-19T05:42:29;11.70;99.90
12434;DHT22;6281;49.038;8.372;2023-11-19T05:48:37;11.70;99.90
12434;DHT22;6281;49.038;8.372;2023-11-19T05:58:39;11.80;99.90
12434;DHT22;6281;49.038;8.372;2023-11-19T06:08:49;11.90;99.90
12434;DHT22;6281;49.038;8.372;2023-11-19T06:11:49;11.90;99.90
12434;DHT22;6281;49.038;8.372;2023-11-19T06:15:18;12.00;99.90
12434;DHT22;6281;49.038;8.372;2023-11-19T06:20:17;12.00;99.90
12434;DHT22;6281;49.038;8.372;2023-11-19T06:24:07;12.00;99.90
12434;DHT22;6281;49.038;8.372;2023-11-19T06:25:47;12.10;99.90
12434;DHT22;6281;49.038;8.372;2023-11-19T06:31:29;12.10;99.90
12434;DHT22;6281;49.038;8.372;2023-11-19T06:34:48;12.10;99.90
12434;DHT22;6281;49.038;8.372;2023-11-19T06:37:39;12.10;99.90
12434;DHT22;6281;49.038;8.372;2023-11-19T06:40:56;12.10;99.90
12434;DHT22;6281;49.038;8.372;2023-11-19T06:47:49;12.10;99.90
12434;DHT22;6281;49.038;8.372;2023-11-19T06:53:17;12.10;99.90
12434;DHT22;6281;49.038;8.372;2023-11-19T06:54:37;12.20;99.90
12434;DHT22;6281;49.038;8.372;2023-11-19T07:01:37;12.10;99.90
12434;DHT22;6281;49.038;8.372;2023-11-19T07:04:29;12.20;99.90
12434;DHT22;6281;49.038;8.372;2023-11-19T07:07:19;12.20;99.90
12434;DHT22;6281;49.038;8.372;2023-11-19T07:10:38;12.20;99.90
12434;DHT22;6281;49.038;8.372;2023-11-19T07:13:29;12.20;99.90
12434;DHT22;6281;49.038;8.372;2023-11-19T07:16:38;12.10;99.90
12434;DHT22;6281;49.038;8.372;2023-11-19T07:19:07;12.10;99.90
12434;DHT22;6281;49.038;8.372;2023-11-19T07:21:48;12.20;99.90
12434;DHT22;6281;49.038;8.372;2023-11-19T07:24:29;12.10;99.90
12434;DHT22;6281;49.038;8.372;2023-11-19T07:27:38;12.10;99.90
12434;DHT22;6281;49.038;8.372;2023-11-19T07:33:58;12.30;99.90
12434;DHT22;6281;49.038;8.372;2023-11-19T07:40:05;12.30;99.90
12434;DHT22;6281;49.038;8.372;2023-11-19T07:42:34;12.40;99.90
12434;DHT22;6281;49.038;8.372;2023-11-19T07:45:04;12.40;99.90
12434;DHT22;6281;49.038;8.372;2023-11-19T07:47:32;12.50;99.90
12434;DHT22;6281;49.038;8.372;2023-11-19T07:50:02;12.50;99.90
12434;DHT22;6281;49.038;8.372;2023-11-19T07:52:33;12.50;99.90
12434;DHT22;6281;49.038;8.372;2023-11-19T07:55:03;12.60;99.90
12434;DHT22;6281;49.038;8.372;2023-11-19T07:57:36;12.60;99.90
12434;DHT22;6281;49.038;8.372;2023-11-19T08:00:06;12.70;99.90
12434;DHT22;6281;49.038;8.372;2023-11-19T08:02:37;12.70;99.90
12434;DHT22;6281;49.038;8.372;2023-11-19T08:05:06;12.40;99.90
12434;DHT22;6281;49.038;8.372;2023-11-19T08:07:38;12.30;99.90
12434;DHT22;6281;49.038;8.372;2023-11-19T08:10:13;12.40;99.90
12434;DHT22;6281;49.038;8.372;2023-11-19T08:12:41;12.40;99.90
12434;DHT22;6281;49.038;8.372;2023-11-19T08:15:09;12.40;99.90
12434;DHT22;6281;49.038;8.372;2023-11-19T08:17:36;12.50;99.90
12434;DHT22;6281;49.038;8.372;2023-11-19T08:20:07;12.50;99.90
12434;DHT22;6281;49.038;8.372;2023-11-19T08:22:36;12.60;99.90
12434;DHT22;6281;49.038;8.372;2023-11-19T08:25:04;12.60;99.90
12434;DHT22;6281;49.038;8.372;2023-11-19T08:27:36;12.60;99.90
12434;DHT22;6281;49.038;8.372;2023-11-19T08:30:07;12.60;99.90
12434;DHT22;6281;49.038;8.372;2023-11-19T08:32:34;12.70;99.90
12434;DHT22;6281;49.038;8.372;2023-11-19T08:35:08;12.80;99.90
12434;DHT22;6281;49.038;8.372;2023-11-19T08:37:39;12.80;99.90
12434;DHT22;6281;49.038;8.372;2023-11-19T08:42:27;12.80;99.90
12434;DHT22;6281;49.038;8.372;2023-11-19T08:46:36;12.90;99.90
12434;DHT22;6281;49.038;8.372;2023-11-19T08:49:03;12.90;99.90
12434;DHT22;6281;49.038;8.372;2023-11-19T08:51:30;12.90;99.90
12434;DHT22;6281;49.038;8.372;2023-11-19T08:53:57;12.90;99.90
12434;DHT22;6281;49.038;8.372;2023-11-19T08:56:24;12.90;99.90
12434;DHT22;6281;49.038;8.372;2023-11-19T08:58:51;13.00;99.90
12434;DHT22;6281;49.038;8.372;2023-11-19T09:01:17;13.00;99.90
12434;DHT22;6281;49.038;8.372;2023-11-19T09:03:46;13.00;99.90
12434;DHT22;6281;49.038;8.372;2023-11-19T09:06:12;13.00;99.90
12434;DHT22;6281;49.038;8.372;2023-11-19T09:08:39;13.00;99.90
12434;DHT22;6281;49.038;8.372;2023-11-19T09:11:09;13.00;99.90
12434;DHT22;6281;49.038;8.372;2023-11-19T09:13:36;13.00;99.90
12434;DHT22;6281;49.038;8.372;2023-11-19T09:16:03;13.00;99.90
12434;DHT22;6281;49.038;8.372;2023-11-19T09:18:30;13.00;99.90
12434;DHT22;6281;49.038;8.372;2023-11-19T09:20:59;13.00;99.90
12434;DHT22;6281;49.038;8.372;2023-11-19T09:23:26;13.10;99.90
12434;DHT22;6281;49.038;8.372;2023-11-19T09:25:53;13.10;99.90
12434;DHT22;6281;49.038;8.372;2023-11-19T09:28:20;13.00;99.90
12434;DHT22;6281;49.038;8.372;2023-11-19T09:30:47;13.00;99.90
12434;DHT22;6281;49.038;8.372;2023-11-19T09:33:14;13.00;99.90
12434;DHT22;6281;49.038;8.372;2023-11-19T09:35:40;13.10;99.90
12434;DHT22;6281;49.038;8.372;2023-11-19T09:38:08;13.10;99.90
12434;DHT22;6281;49.038;8.372;2023-11-19T09:40:35;13.20;99.90
12434;DHT22;6281;49.038;8.372;2023-11-19T09:43:04;13.20;99.90
12434;DHT22;6281;49.038;8.372;2023-11-19T09:45:32;13.20;99.90
12434;DHT22;6281;49.038;8.372;2023-11-19T09:48:05;13.20;99.90
12434;DHT22;6281;49.038;8.372;2023-11-19T09:50:33;13.30;99.90
12434;DHT22;6281;49.038;8.372;2023-11-19T09:52:59;13.30;99.90
12434;DHT22;6281;49.038;8.372;2023-11-19T09:55:28;13.40;99.90
12434;DHT22;6281;49.038;8.372;2023-11-19T09:57:54;13.40;99.90
12434;DHT22;6281;49.038;8.372;2023-11-19T10:00:22;13.50;99.90
12434;DHT22;6281;49.038;8.372;2023-11-19T10:02:49;13.60;99.90
12434;DHT22;6281;49.038;8.372;2023-11-19T10:05:16;13.60;99.90
12434;DHT22;6281;49.038;8.372;2023-11-19T10:07:46;13.60;99.90
12434;DHT22;6281;49.038;8.372;2023-11-19T10:10:13;13.60;99.90
12434;DHT22;6281;49.038;8.372;2023-11-19T10:12:45;13.60;99.90
12434;DHT22;6281;49.038;8.372;2023-11-19T10:15:19;13.50;99.90
12434;DHT22;6281;49.038;8.372;2023-11-19T10:17:47;13.50;99.90
12434;DHT22;6281;49.038;8.372;2023-11-19T10:20:14;13.60;99.90
12434;DHT22;6281;49.038;8.372;2023-11-19T10:22:41;13.60;99.90
12434;DHT22;6281;49.038;8.372;2023-11-19T10:25:21;13.70;99.90
12434;DHT22;6281;49.038;8.372;2023-11-19T10:27:50;13.80;99.90
12434;DHT22;6281;49.038;8.372;2023-11-19T10:30:21;13.80;99.90
12434;DHT22;6281;49.038;8.372;2023-11-19T10:33:03;13.80;99.90
12434;DHT22;6281;49.038;8.372;2023-11-19T10:35:30;14.00;99.90
12434;DHT22;6281;49.038;8.372;2023-11-19T10:37:59;14.10;99.90
12434;DHT22;6281;49.038;8.372;2023-11-19T10:40:37;14.10;99.90
12434;DHT22;6281;49.038;8.372;2023-11-19T10:43:06;14.10;99.90
12434;DHT22;6281;49.038;8.372;2023-11-19T10:45:34;14.30;99.90
12434;DHT22;6281;49.038;8.372;2023-11-19T10:48:02;14.20;99.90
12434;DHT22;6281;49.038;8.372;2023-11-19T10:50:32;14.20;99.90
12434;DHT22;6281;49.038;8.372;2023-11-19T10:52:59;14.30;99.90
12434;DHT22;6281;49.038;8.372;2023-11-19T10:55:27;14.50;99.90
12434;DHT22;6281;49.038;8.372;2023-11-19T10:57:59;14.40;99.90
12434;DHT22;6281;49.038;8.372;2023-11-19T11:00:29;14.40;99.90
12434;DHT22;6281;49.038;8.372;2023-11-19T11:03:00;14.50;99.90
12434;DHT22;6281;49.038;8.372;2023-11-19T11:05:29;14.50;99.90
12434;DHT22;6281;49.038;8.372;2023-11-19T11:08:00;14.60;99.90
12434;DHT22;6281;49.038;8.372;2023-11-19T11:10:28;14.60;99.90
12434;DHT22;6281;49.038;8.372;2023-11-19T11:12:59;14.70;99.90
12434;DHT22;6281;49.038;8.372;2023-11-19T11:15:30;14.60;99.90
12434;DHT22;6281;49.038;8.372;2023-11-19T11:18:01;14.60;99.90
12434;DHT22;6281;49.038;8.372;2023-11-19T11:20:29;14.60;99.90
12434;DHT22;6281;49.038;8.372;2023-11-19T11:23:13;14.50;99.90
12434;DHT22;6281;49.038;8.372;2023-11-19T11:25:51;14.40;99.90
12434;DHT22;6281;49.038;8.372;2023-11-19T11:28:29;14.30;99.90
12434;DHT22;6281;49.038;8.372;2023-11-19T11:31:15;14.20;99.90
12434;DHT22;6281;49.038;8.372;2023-11-19T11:34:03;14.20;99.90
12434;DHT22;6281;49.038;8.372;2023-11-19T11:36:36;14.20;99.90
12434;DHT22;6281;49.038;8.372;2023-11-19T11:44:03;14.70;99.90
12434;DHT22;6281;49.038;8.372;2023-11-19T11:46:56;17.30;99.90
12434;DHT22;6281;49.038;8.372;2023-11-19T11:49:28;16.50;99.90
12434;DHT22;6281;49.038;8.372;2023-11-19T11:52:02;16.20;99.90
12434;DHT22;6281;49.038;8.372;2023-11-19T11:54:29;16.30;99.90
12434;DHT22;6281;49.038;8.372;2023-11-19T11:57:18;16.20;99.90
12434;DHT22;6281;49.038;8.372;2023-11-19T11:59:48;16.00;99.90
12434;DHT22;6281;49.038;8.372;2023-11-19T12:02:18;16.20;99.90
12434;DHT22;6281;49.038;8.372;2023-11-19T12:04:51;17.00;99.90
12434;DHT22;6281;49.038;8.372;2023-11-19T12:07:19;16.20;99.90
12434;DHT22;6281;49.038;8.372;2023-11-19T12:09:52;15.50;99.90
12434;DHT22;6281;49.038;8.372;2023-11-19T12:12:27;15.70;99.90
12434;DHT22;6281;49.038;8.372;2023-11-19T12:15:01;15.80;99.90
12434;DHT22;6281;49.038;8.372;2023-11-19T12:17:58;15.60;99.90
12434;DHT22;6281;49.038;8.372;2023-11-19T12:20:26;15.50;99.90
12434;DHT22;6281;49.038;8.372;2023-11-19T12:22:57;15.90;99.90
12434;DHT22;6281;49.038;8.372;2023-11-19T12:25:24;17.20;99.90
12434;DHT22;6281;49.038;8.372;2023-11-19T12:27:52;15.90;99.90
12434;DHT22;6281;49.038;8.372;2023-11-19T12:30:21;16.20;99.90
12434;DHT22;6281;49.038;8.372;2023-11-19T12:32:49;15.70;99.90
12434;DHT22;6281;49.038;8.372;2023-11-19T12:35:17;15.60;99.90
12434;DHT22;6281;49.038;8.372;2023-11-19T12:37:46;15.60;99.90
12434;DHT22;6281;49.038;8.372;2023-11-19T12:40:14;15.50;99.90
12434;DHT22;6281;49.038;8.372;2023-11-19T12:42:42;16.30;99.90
12434;DHT22;6281;49.038;8.372;2023-11-19T12:45:10;18.70;99.90
12434;DHT22;6281;49.038;8.372;2023-11-19T12:47:38;17.90;99.90
12434;DHT22;6281;49.038;8.372;2023-11-19T12:50:06;17.10;99.90
12434;DHT22;6281;49.038;8.372;2023-11-19T12:52:35;17.30;99.90
12434;DHT22;6281;49.038;8.372;2023-11-19T12:55:02;17.10;99.90
12434;DHT22;6281;49.038;8.372;2023-11-19T12:57:39;17.00;99.90
12434;DHT22;6281;49.038;8.372;2023-11-19T13:00:07;16.50;99.90
12434;DHT22;6281;49.038;8.372;2023-11-19T13:02:45;16.10;99.90
12434;DHT22;6281;49.038;8.372;2023-11-19T13:05:23;15.80;99.90
12434;DHT22;6281;49.038;8.372;2023-11-19T13:07:58;15.70;99.90
12434;DHT22;6281;49.038;8.372;2023-11-19T13:10:25;15.60;99.90
12434;DHT22;6281;49.038;8.372;2023-11-19T13:13:03;15.60;99.90
12434;DHT22;6281;49.038;8.372;2023-11-19T13:15:30;15.50;99.90
12434;DHT22;6281;49.038;8.372;2023-11-19T13:17:57;15.50;99.90
12434;DHT22;6281;49.038;8.372;2023-11-19T13:20:24;15.80;99.90
12434;DHT22;6281;49.038;8.372;2023-11-19T13:23:00;16.60;99.90
12434;DHT22;6281;49.038;8.372;2023-11-19T13:25:28;17.00;99.90
12434;DHT22;6281;49.038;8.372;2023-11-19T13:27:56;17.20;99.90
12434;DHT22;6281;49.038;8.372;2023-11-19T13:30:23;17.70;99.90
12434;DHT22;6281;49.038;8.372;2023-11-19T13:32:50;17.30;99.90
12434;DHT22;6281;49.038;8.372;2023-11-19T13:35:18;17.70;99.90
12434;DHT22;6281;49.038;8.372;2023-11-19T13:37:45;17.40;99.90
12434;DHT22;6281;49.038;8.372;2023-11-19T13:40:14;17.10;99.90
12434;DHT22;6281;49.038;8.372;2023-11-19T13:42:41;17.00;99.90
12434;DHT22;6281;49.038;8.372;2023-11-19T13:45:09;16.70;99.90
12434;DHT22;6281;49.038;8.372;2023-11-19T13:47:40;16.60;99.90
12434;DHT22;6281;49.038;8.372;2023-11-19T13:50:10;16.40;99.90
12434;DHT22;6281;49.038;8.372;2023-11-19T13:52:37;16.30;99.90
12434;DHT22;6281;49.038;8.372;2023-11-19T13:55:06;16.30;99.90
12434;DHT22;6281;49.038;8.372;2023-11-19T13:57:35;16.20;99.90
12434;DHT22;6281;49.038;8.372;2023-11-19T14:00:02;16.00;99.90
12434;DHT22;6281;49.038;8.372;2023-11-19T14:02:32;15.90;99.90
12434;DHT22;6281;49.038;8.372;2023-11-19T14:04:59;15.70;99.90
12434;DHT22;6281;49.038;8.372;2023-11-19T14:07:26;15.60;99.90
12434;DHT22;6281;49.038;8.372;2023-11-19T14:09:53;15.60;99.90
12434;DHT22;6281;49.038;8.372;2023-11-19T14:12:20;15.50;99.90
12434;DHT22;6281;49.038;8.372;2023-11-19T14:14:49;15.40;99.90
12434;DHT22;6281;49.038;8.372;2023-11-19T14:17:16;15.40;99.90
12434;DHT22;6281;49.038;8.372;2023-11-19T14:19:44;15.20;99.90
12434;DHT22;6281;49.038;8.372;2023-11-19T14:22:11;15.20;99.90
12434;DHT22;6281;49.038;8.372;2023-11-19T14:24:38;15.10;99.90
12434;DHT22;6281;49.038;8.372;2023-11-19T14:27:07;15.00;99.90
12434;DHT22;6281;49.038;8.372;2023-11-19T14:29:34;15.00;99.90
12434;DHT22;6281;49.038;8.372;2023-11-19T14:32:03;14.90;99.90
12434;DHT22;6281;49.038;8.372;2023-11-19T14:34:30;15.00;99.90
12434;DHT22;6281;49.038;8.372;2023-11-19T14:36:57;15.00;99.90
12434;DHT22;6281;49.038;8.372;2023-11-19T14:39:26;14.90;99.90
12434;DHT22;6281;49.038;8.372;2023-11-19T14:41:54;14.70;99.90
12434;DHT22;6281;49.038;8.372;2023-11-19T14:44:24;14.70;99.90
12434;DHT22;6281;49.038;8.372;2023-11-19T14:46:50;14.90;99.90
12434;DHT22;6281;49.038;8.372;2023-11-19T14:49:19;14.80;99.90
12434;DHT22;6281;49.038;8.372;2023-11-19T14:51:46;14.70;99.90
12434;DHT22;6281;49.038;8.372;2023-11-19T14:54:13;14.80;99.90
12434;DHT22;6281;49.038;8.372;2023-11-19T14:56:41;14.80;99.90
12434;DHT22;6281;49.038;8.372;2023-11-19T14:59:08;14.80;99.90
12434;DHT22;6281;49.038;8.372;2023-11-19T15:01:35;14.80;99.90
12434;DHT22;6281;49.038;8.372;2023-11-19T15:04:03;14.70;99.90
12434;DHT22;6281;49.038;8.372;2023-11-19T15:06:31;14.80;99.90
12434;DHT22;6281;49.038;8.372;2023-11-19T15:08:59;14.80;99.90
12434;DHT22;6281;49.038;8.372;2023-11-19T15:11:26;14.70;99.90
12434;DHT22;6281;49.038;8.372;2023-11-19T15:13:53;14.70;99.90
12434;DHT22;6281;49.038;8.372;2023-11-19T15:16:20;14.70;99.90
12434;DHT22;6281;49.038;8.372;2023-11-19T15:18:56;14.70;99.90
12434;DHT22;6281;49.038;8.372;2023-11-19T15:21:25;14.70;99.90
12434;DHT22;6281;49.038;8.372;2023-11-19T15:23:53;14.70;99.90
12434;DHT22;6281;49.038;8.372;2023-11-19T15:26:20;14.70;99.90
12434;DHT22;6281;49.038;8.372;2023-11-19T15:28:47;14.70;99.90
12434;DHT22;6281;49.038;8.372;2023-11-19T15:31:14;14.60;99.90
12434;DHT22;6281;49.038;8.372;2023-11-19T15:33:42;14.60;99.90
12434;DHT22;6281;49.038;8.372;2023-11-19T15:36:09;14.60;99.90
12434;DHT22;6281;49.038;8.372;2023-11-19T15:38:36;14.70;99.90
12434;DHT22;6281;49.038;8.372;2023-11-19T15:41:05;14.60;99.90
12434;DHT22;6281;49.038;8.372;2023-11-19T15:43:32;14.60;99.90
12434;DHT22;6281;49.038;8.372;2023-11-19T15:46:00;14.60;99.90
12434;DHT22;6281;49.038;8.372;2023-11-19T15:48:26;14.60;99.90
12434;DHT22;6281;49.038;8.372;2023-11-19T15:50:53;14.40;99.90
12434;DHT22;6281;49.038;8.372;2023-11-19T15:53:20;14.40;99.90
12434;DHT22;6281;49.038;8.372;2023-11-19T15:55:47;14.40;99.90
12434;DHT22;6281;49.038;8.372;2023-11-19T15:58:16;14.50;99.90
12434;DHT22;6281;49.038;8.372;2023-11-19T16:00:43;14.40;99.90
12434;DHT22;6281;49.038;8.372;2023-11-19T16:03:12;14.30;99.90
12434;DHT22;6281;49.038;8.372;2023-11-19T16:05:39;14.20;99.90
12434;DHT22;6281;49.038;8.372;2023-11-19T16:08:06;14.20;99.90
12434;DHT22;6281;49.038;8.372;2023-11-19T16:10:36;14.10;99.90
12434;DHT22;6281;49.038;8.372;2023-11-19T16:13:05;14.20;99.90
12434;DHT22;6281;49.038;8.372;2023-11-19T16:15:34;14.20;99.90
12434;DHT22;6281;49.038;8.372;2023-11-19T16:18:01;14.20;99.90
12434;DHT22;6281;49.038;8.372;2023-11-19T16:20:28;14.20;99.90
12434;DHT22;6281;49.038;8.372;2023-11-19T16:22:56;14.10;99.90
12434;DHT22;6281;49.038;8.372;2023-11-19T16:25:25;14.30;99.90
12434;DHT22;6281;49.038;8.372;2023-11-19T16:27:52;14.20;99.90
12434;DHT22;6281;49.038;8.372;2023-11-19T16:30:19;14.20;99.90
12434;DHT22;6281;49.038;8.372;2023-11-19T16:32:53;14.20;99.90
12434;DHT22;6281;49.038;8.372;2023-11-19T16:35:24;14.30;99.90
12434;DHT22;6281;49.038;8.372;2023-11-19T16:37:51;14.30;99.90
12434;DHT22;6281;49.038;8.372;2023-11-19T16:40:19;14.30;99.90
12434;DHT22;6281;49.038;8.372;2023-11-19T16:42:46;14.30;99.90
12434;DHT22;6281;49.038;8.372;2023-11-19T16:45:14;14.30;99.90
12434;DHT22;6281;49.038;8.372;2023-11-19T16:47:41;14.20;99.90
12434;DHT22;6281;49.038;8.372;2023-11-19T16:50:12;14.20;99.90
12434;DHT22;6281;49.038;8.372;2023-11-19T16:52:41;14.20;99.90
12434;DHT22;6281;49.038;8.372;2023-11-19T16:55:08;14.10;99.90
12434;DHT22;6281;49.038;8.372;2023-11-19T16:57:39;14.10;99.90
12434;DHT22;6281;49.038;8.372;2023-11-19T17:00:06;14.10;99.90
12434;DHT22;6281;49.038;8.372;2023-11-19T17:02:36;14.10;99.90
12434;DHT22;6281;49.038;8.372;2023-11-19T17:05:03;14.00;99.90
12434;DHT22;6281;49.038;8.372;2023-11-19T17:07:34;13.90;99.90
12434;DHT22;6281;49.038;8.372;2023-11-19T17:10:01;13.90;99.90
12434;DHT22;6281;49.038;8.372;2023-11-19T17:12:29;13.90;99.90
12434;DHT22;6281;49.038;8.372;2023-11-19T17:14:56;13.80;99.90
12434;DHT22;6281;49.038;8.372;2023-11-19T17:17:33;13.80;99.90
12434;DHT22;6281;49.038;8.372;2023-11-19T17:20:01;13.70;99.90
12434;DHT22;6281;49.038;8.372;2023-11-19T17:22:31;13.70;99.90
12434;DHT22;6281;49.038;8.372;2023-11-19T17:25:01;13.70;99.90
12434;DHT22;6281;49.038;8.372;2023-11-19T17:27:28;13.60;99.90
12434;DHT22;6281;49.038;8.372;2023-11-19T17:29:55;13.60;99.90
12434;DHT22;6281;49.038;8.372;2023-11-19T17:32:22;13.50;99.90
12434;DHT22;6281;49.038;8.372;2023-11-19T17:34:48;13.50;99.90
12434;DHT22;6281;49.038;8.372;2023-11-19T17:37:16;13.50;99.90
12434;DHT22;6281;49.038;8.372;2023-11-19T17:39:43;13.50;99.90
12434;DHT22;6281;49.038;8.372;2023-11-19T17:42:11;13.40;99.90